Wilmington, OH

4:14 AM EST on January 26, 2015 (GMT -0500)
Little House On The Prairie | Change Station
CLOSE
Current Station
Personal Weather Station
Location: Wilmington, OH
Elevation: 1043 ft
Nearby Weather Stations
Active Advisory: Winter Weather Advisory Active Notice: Public Information Statement

Elev 1043 ft 39.45 °N, 83.82 °W | Updated 1 second ago

Light Snow
Light Snow Mist
21.2 °F
Feels Like 16 °F
N
3.7
Wind Variable Wind from NE
Gusts 3.7 mph

Today
High -- | Low -- °F
--% Chance of Precip.
Yesterday
High -- | Low -- °F
Precip. -- in
7:47 AM 5:48 PM
Waxing Crescent, 41% visible
Pressure 29.73 in
Visibility 2.5 miles
Clouds Overcast 1900 ft
Windchill 16 °F
Dew Point 20 °F
Humidity 95%
Rainfall 0.00 in
Snow Depth Not available.
UV 0 out of 12
Pollen .10 out of 12
Air Quality Not available.
Flu Activity Not available.
SPECI KILN 260909Z AUTO 01017KT 2 1/2SM -SN BR OVC019 M06/M08 A2973 RMK AO2 P0000 T10611083

More Conditions Fewer Conditions

Pressure 29.73 in
Visibility 2.5 miles
Clouds Overcast 1900 ft
Windchill 16 °F
Dew Point 20 °F
Humidity 95%
Rainfall 0.00 in
Snow Depth Not available.
UV 0 out of 12
Pollen .10 out of 12
Air Quality Not available.
Flu Activity Not available.
SPECI KILN 260909Z AUTO 01017KT 2 1/2SM -SN BR OVC019 M06/M08 A2973 RMK AO2 P0000 T10611083

More Conditions Fewer Conditions

10-Day Weather Forecast

Almanac

Astronomy

Jan. 26, 2015 Rise Set
Actual Time
Civil Twilight
Nautical Twilight
Astronomical Twilight
Moon
Length of Visible Light
Length of Day
Tomorrow will be .
, % of the Moon is Illuminated

Today's Extremes

State Highs State Lows

Community

WunderPhotos

Upload Photos

1,790,163 photos uploaded!

WunderBlogs® & News

Nearby

Air Quality

  Air Quality AQ Index Pollutant
Not available.

Snow Depth

Station Depth Elevation

Earthquake Activity

City Distance Mag. Time & Date
Minimum magnitude displayed is 2.5.

Coastal Water Temperatures

Place Temperature

Nearby Weather Stations